createdAt,value
2023-06-30T00:03:00.843Z,19.17
2023-06-30T00:08:10.114Z,18.95
2023-06-30T00:13:09.905Z,19.17
2023-06-30T00:18:02.199Z,19.11
2023-06-30T00:22:54.787Z,17.97
2023-06-30T00:27:49.285Z,17.90
2023-06-30T00:32:42.120Z,17.45
2023-06-30T00:37:38.431Z,18.71
2023-06-30T00:42:30.746Z,17.22
2023-06-30T00:47:24.368Z,18.53
2023-06-30T00:52:19.092Z,18.08
2023-06-30T00:57:11.652Z,17.73
2023-06-30T01:02:20.717Z,18.29
2023-06-30T01:07:40.277Z,18.12
2023-06-30T01:12:35.757Z,17.95
2023-06-30T01:17:29.448Z,17.83
2023-06-30T01:22:29.678Z,17.61
2023-06-30T01:27:26.982Z,17.80
2023-06-30T01:32:20.527Z,17.04
2023-06-30T01:37:14.592Z,17.74
2023-06-30T01:42:11.100Z,17.25
2023-06-30T01:47:04.177Z,17.35
2023-06-30T01:52:02.099Z,17.53
2023-06-30T01:56:55.504Z,17.55
2023-06-30T02:01:49.670Z,17.77
2023-06-30T02:06:44.371Z,16.84
2023-06-30T02:11:37.125Z,17.28
2023-06-30T02:16:29.213Z,15.50
2023-06-30T02:21:26.224Z,17.75
2023-06-30T02:26:20.206Z,17.67
2023-06-30T02:31:14.054Z,16.88
2023-06-30T02:36:06.289Z,16.72
2023-06-30T02:40:59.272Z,15.41
2023-06-30T02:45:52.358Z,16.68
2023-06-30T02:50:47.005Z,17.35
2023-06-30T02:55:43.722Z,17.50
2023-06-30T03:00:41.249Z,15.34
2023-06-30T03:05:35.517Z,17.38
2023-06-30T03:10:30.492Z,15.25
2023-06-30T03:15:25.881Z,17.21
2023-06-30T03:20:20.383Z,14.66
2023-06-30T03:25:12.595Z,17.17
2023-06-30T03:30:06.211Z,17.05
2023-06-30T03:35:04.467Z,18.58
2023-06-30T03:39:58.807Z,17.25
2023-06-30T03:44:50.809Z,17.19
2023-06-30T03:49:45.097Z,16.78
2023-06-30T03:54:37.174Z,17.38
2023-06-30T03:59:29.681Z,17.07
2023-06-30T04:04:24.545Z,17.27
2023-06-30T04:09:19.101Z,17.00
2023-06-30T04:14:11.999Z,17.29
2023-06-30T04:19:04.079Z,16.59
2023-06-30T04:23:58.134Z,16.60
2023-06-30T04:28:50.522Z,16.98
2023-06-30T04:33:42.530Z,17.12
2023-06-30T04:38:36.182Z,15.63
2023-06-30T04:43:30.738Z,17.26
2023-06-30T04:48:23.701Z,17.52
2023-06-30T04:53:16.161Z,16.48
2023-06-30T04:58:09.317Z,17.19
2023-06-30T05:03:03.608Z,17.10
2023-06-30T05:07:57.355Z,17.21
2023-06-30T05:12:51.429Z,17.87
2023-06-30T05:17:43.519Z,18.07
2023-06-30T05:22:36.677Z,18.36
2023-06-30T05:27:28.766Z,18.40
2023-06-30T05:32:21.299Z,16.01
2023-06-30T05:37:18.539Z,18.27
2023-06-30T05:42:10.735Z,17.45
2023-06-30T05:47:05.202Z,19.39
2023-06-30T05:51:59.948Z,17.58
2023-06-30T05:56:53.515Z,19.69
2023-06-30T06:01:46.758Z,19.99
2023-06-30T06:12:10.572Z,20.02
2023-06-30T06:17:02.745Z,20.15
2023-06-30T06:21:54.829Z,20.02
2023-06-30T06:26:46.970Z,19.92
2023-06-30T06:31:41.140Z,20.20
2023-06-30T06:36:33.421Z,22.56
2023-06-30T06:41:28.563Z,23.88
2023-06-30T06:46:21.776Z,23.76
2023-06-30T06:51:14.195Z,24.44
2023-06-30T06:56:07.317Z,22.66
2023-06-30T07:06:09.541Z,29.81
2023-06-30T07:11:06.367Z,32.63
2023-06-30T07:16:00.210Z,32.67
2023-06-30T07:20:56.807Z,33.36
2023-06-30T07:31:00.010Z,31.86
2023-06-30T07:35:53.972Z,31.77
2023-06-30T07:40:56.083Z,33.82
2023-06-30T07:51:09.138Z,32.81
2023-06-30T07:56:05.924Z,31.74
2023-06-30T08:00:58.835Z,31.26
2023-06-30T08:05:53.738Z,29.73
2023-06-30T08:10:52.548Z,31.41
2023-06-30T08:15:50.301Z,33.23
2023-06-30T08:20:52.551Z,34.37
2023-06-30T08:25:54.930Z,34.25
2023-06-30T08:30:54.467Z,33.12
2023-06-30T08:35:52.398Z,33.95
2023-06-30T08:40:45.273Z,33.38
2023-06-30T08:45:40.381Z,34.89
2023-06-30T08:50:43.258Z,36.04
2023-06-30T08:55:45.855Z,35.71
2023-06-30T09:00:40.649Z,35.89
2023-06-30T09:05:57.812Z,35.52
2023-06-30T09:10:59.362Z,35.43
2023-06-30T09:15:58.324Z,33.76
2023-06-30T09:20:51.248Z,33.32
2023-06-30T09:25:46.586Z,34.07
2023-06-30T09:30:44.199Z,34.85
2023-06-30T09:36:05.760Z,33.95
2023-06-30T09:46:17.554Z,31.52
2023-06-30T09:51:20.874Z,31.68
2023-06-30T10:23:37.008Z,27.71
2023-06-30T10:33:49.192Z,27.60
2023-06-30T10:38:47.153Z,27.37
2023-06-30T10:44:05.101Z,26.87
2023-06-30T10:54:06.380Z,26.97
2023-06-30T10:59:08.523Z,26.00
2023-06-30T11:04:13.291Z,26.95
2023-06-30T11:29:59.608Z,26.88
2023-06-30T11:34:55.157Z,26.73
2023-06-30T11:45:08.589Z,26.57
2023-06-30T12:00:30.911Z,26.76
2023-06-30T12:05:27.814Z,27.33
2023-06-30T12:10:20.954Z,27.85
2023-06-30T12:20:25.684Z,24.08
2023-06-30T12:25:28.791Z,26.77
2023-06-30T12:30:23.921Z,25.71
2023-06-30T12:40:35.185Z,26.33
2023-06-30T14:24:39.228Z,27.68
2023-06-30T14:29:31.908Z,25.24
2023-06-30T14:34:27.928Z,26.93
2023-06-30T14:44:37.189Z,27.31
2023-06-30T15:05:55.114Z,28.01
2023-06-30T15:37:16.663Z,27.39
2023-06-30T17:25:51.444Z,23.11
2023-06-30T18:38:15.629Z,21.68
2023-06-30T18:43:11.519Z,22.04
2023-06-30T19:42:43.787Z,18.16
2023-06-30T19:58:18.637Z,16.75
2023-06-30T20:08:51.461Z,20.52
2023-06-30T20:13:49.936Z,20.46
2023-06-30T20:19:38.526Z,20.02
2023-06-30T20:24:37.528Z,19.38
2023-06-30T20:52:04.949Z,17.53
2023-06-30T21:03:20.014Z,19.07
2023-06-30T21:26:53.914Z,16.55
2023-06-30T21:37:09.466Z,15.40
2023-06-30T21:42:05.906Z,18.85
2023-06-30T21:47:48.869Z,15.95
2023-06-30T21:52:41.348Z,15.79
2023-06-30T22:21:34.716Z,15.87
2023-06-30T22:33:12.938Z,17.42
2023-06-30T22:38:05.446Z,18.86
2023-06-30T22:42:57.810Z,19.38
2023-06-30T22:47:50.136Z,16.66
2023-06-30T22:52:42.411Z,18.85
2023-06-30T22:57:40.781Z,19.02
2023-06-30T23:02:36.837Z,18.44
2023-06-30T23:07:35.333Z,19.35
2023-06-30T23:12:29.445Z,19.32
2023-06-30T23:17:29.335Z,19.23
2023-06-30T23:32:59.048Z,19.11
2023-06-30T23:37:54.984Z,17.35
2023-06-30T23:42:51.684Z,19.07
2023-06-30T23:50:33.854Z,19.14
2023-06-30T23:55:25.754Z,19.04
